Time;durP1;ratioP1;P1;durP2;ratioP2;P2;SDS_P1;SDS_P2;PMS_P1;PMS_P2;Temp;Humidity;BMP_temperature;BMP_pressure;BME280_temperature;BME280_humidity;BME280_pressure;Samples;Min_cycle;Max_cycle;Signal;HPM_P1;HPM_P2
2022/08/09 00:01:02;;;;;;;3.57;1.50;;;;;;;;;;10391720;28;20263;-72
2022/08/09 00:06:03;;;;;;;2.53;1.20;;;;;;;;;;10388869;28;20289;-73
2022/08/09 00:11:04;;;;;;;4.23;1.60;;;;;;;;;;10399110;28;20213;-72
2022/08/09 00:16:05;;;;;;;2.00;1.57;;;;;;;;;;10392415;28;20232;-72
2022/08/09 00:21:06;;;;;;;3.37;1.07;;;;;;;;;;10388454;28;20213;-72
2022/08/09 00:26:09;;;;;;;3.37;1.60;;;;;;;;;;10394458;28;20221;-71
2022/08/09 00:31:10;;;;;;;1.70;1.10;;;;;;;;;;10391789;28;20220;-72
2022/08/09 00:36:11;;;;;;;5.20;1.50;;;;;;;;;;10398937;28;20606;-72
2022/08/09 00:41:12;;;;;;;3.93;1.47;;;;;;;;;;10396786;28;20707;-72
2022/08/09 00:46:13;;;;;;;5.57;1.47;;;;;;;;;;10395011;28;20264;-70
2022/08/09 00:51:16;;;;;;;1.67;1.50;;;;;;;;;;10393797;28;20615;-69
2022/08/09 00:56:17;;;;;;;1.20;1.10;;;;;;;;;;10393961;28;20228;-71
2022/08/09 01:01:23;;;;;;;2.47;2.03;;;;;;;;;;10392112;28;20235;-71
2022/08/09 01:06:28;;;;;;;2.03;1.40;;;;;;;;;;10401475;28;20264;-72
2022/08/09 01:11:36;;;;;;;3.67;1.60;;;;;;;;;;10385321;28;20221;-72
2022/08/09 01:16:41;;;;;;;3.53;1.50;;;;;;;;;;10392680;28;20243;-72
2022/08/09 01:21:45;;;;;;;3.00;1.70;;;;;;;;;;10378523;28;20576;-72
2022/08/09 01:26:55;;;;;;;2.97;1.80;;;;;;;;;;10391933;28;20572;-72
2022/08/09 01:32:00;;;;;;;3.73;1.50;;;;;;;;;;10399104;28;20695;-71
2022/08/09 01:37:03;;;;;;;4.97;1.60;;;;;;;;;;10405355;28;20228;-72
2022/08/09 01:42:06;;;;;;;5.00;1.50;;;;;;;;;;10396188;28;20307;-72
2022/08/09 01:47:07;;;;;;;4.07;1.90;;;;;;;;;;10401956;28;20698;-72
2022/08/09 01:52:10;;;;;;;2.83;1.83;;;;;;;;;;10399026;28;20224;-72
2022/08/09 01:57:15;;;;;;;2.27;1.97;;;;;;;;;;10395844;28;20345;-72
2022/08/09 02:02:17;;;;;;;2.33;1.87;;;;;;;;;;10393124;28;20696;-72
2022/08/09 02:07:20;;;;;;;3.20;1.80;;;;;;;;;;10399778;28;20607;-72
2022/08/09 02:12:21;;;;;;;4.97;1.80;;;;;;;;;;10391737;28;20228;-72
2022/08/09 02:17:24;;;;;;;4.60;1.87;;;;;;;;;;10398350;28;20287;-73
2022/08/09 02:22:39;;;;;;;4.30;2.00;;;;;;;;;;10400836;28;20225;-71
2022/08/09 02:27:42;;;;;;;2.00;1.73;;;;;;;;;;10399919;28;20231;-71
2022/08/09 02:32:45;;;;;;;4.77;1.93;;;;;;;;;;10394125;28;20271;-72
2022/08/09 02:37:51;;;;;;;3.53;1.90;;;;;;;;;;10396875;28;20319;-71
2022/08/09 02:42:53;;;;;;;5.07;2.00;;;;;;;;;;10405931;28;20305;-72
2022/08/09 02:47:56;;;;;;;4.23;2.10;;;;;;;;;;10395493;28;20225;-72
2022/08/09 02:52:59;;;;;;;4.00;1.97;;;;;;;;;;10403555;28;20308;-71
2022/08/09 02:58:00;;;;;;;4.27;1.90;;;;;;;;;;10396217;28;20327;-70
2022/08/09 03:03:02;;;;;;;3.03;2.40;;;;;;;;;;10402758;28;20221;-72
2022/08/09 03:08:04;;;;;;;3.50;2.10;;;;;;;;;;10396706;28;20235;-71
2022/08/09 03:13:06;;;;;;;4.43;2.37;;;;;;;;;;10406808;28;20212;-71
2022/08/09 03:18:07;;;;;;;2.40;1.90;;;;;;;;;;10392373;28;20657;-71
2022/08/09 03:23:10;;;;;;;4.50;2.40;;;;;;;;;;10396156;28;20223;-71
2022/08/09 03:28:11;;;;;;;4.30;2.27;;;;;;;;;;10389626;28;20688;-72
2022/08/09 03:33:12;;;;;;;3.70;2.10;;;;;;;;;;10395004;28;20252;-71
2022/08/09 03:38:13;;;;;;;3.77;2.40;;;;;;;;;;10398062;28;20244;-73
2022/08/09 03:43:14;;;;;;;5.17;2.07;;;;;;;;;;10398459;28;20221;-73
2022/08/09 03:48:15;;;;;;;5.07;2.47;;;;;;;;;;10394521;28;20676;-73
2022/08/09 03:53:17;;;;;;;2.83;2.40;;;;;;;;;;10389368;28;20267;-72
2022/08/09 03:58:18;;;;;;;4.30;2.67;;;;;;;;;;10396211;28;20315;-73
2022/08/09 04:03:20;;;;;;;3.00;2.40;;;;;;;;;;10388656;28;20225;-73
2022/08/09 04:08:21;;;;;;;6.67;2.53;;;;;;;;;;10396208;28;20683;-69
2022/08/09 04:13:22;;;;;;;5.87;2.50;;;;;;;;;;10395924;28;20384;-69
2022/08/09 04:18:23;;;;;;;3.50;2.23;;;;;;;;;;10387797;28;20668;-68
2022/08/09 04:23:24;;;;;;;3.17;2.27;;;;;;;;;;10400478;28;20243;-69
2022/08/09 04:28:25;;;;;;;3.37;2.20;;;;;;;;;;10388007;28;20233;-73
2022/08/09 04:33:26;;;;;;;2.43;2.23;;;;;;;;;;10386823;28;20880;-74
2022/08/09 04:38:27;;;;;;;6.57;2.70;;;;;;;;;;10394089;28;20219;-73
2022/08/09 04:43:28;;;;;;;5.07;2.47;;;;;;;;;;10387553;28;20291;-73
2022/08/09 04:48:29;;;;;;;3.17;2.50;;;;;;;;;;10401277;28;20319;-72
2022/08/09 04:53:30;;;;;;;3.77;2.63;;;;;;;;;;10386852;28;20304;-73
2022/08/09 04:58:32;;;;;;;5.33;2.53;;;;;;;;;;10405971;28;20217;-73
2022/08/09 05:03:33;;;;;;;5.97;2.50;;;;;;;;;;10392429;28;20699;-72
2022/08/09 05:08:34;;;;;;;7.87;2.90;;;;;;;;;;10393975;28;20617;-73
2022/08/09 05:13:35;;;;;;;6.87;2.70;;;;;;;;;;10402697;28;20220;-73
2022/08/09 05:18:37;;;;;;;3.50;2.57;;;;;;;;;;10387902;28;20225;-73
2022/08/09 05:23:38;;;;;;;7.03;2.30;;;;;;;;;;10387256;28;20225;-73
2022/08/09 05:28:39;;;;;;;10.83;2.50;;;;;;;;;;10393109;28;20241;-72
2022/08/09 05:33:40;;;;;;;6.03;2.47;;;;;;;;;;10386741;28;20229;-73
2022/08/09 05:38:41;;;;;;;4.60;2.17;;;;;;;;;;10393266;28;20315;-73
2022/08/09 05:43:41;;;;;;;5.97;2.40;;;;;;;;;;10384946;28;20240;-73
2022/08/09 05:48:42;;;;;;;8.27;2.43;;;;;;;;;;10388755;28;20233;-74
2022/08/09 05:53:49;;;;;;;4.70;2.30;;;;;;;;;;10399647;28;20221;-73
2022/08/09 05:58:53;;;;;;;7.93;2.80;;;;;;;;;;10390205;28;20252;-72
2022/08/09 06:03:55;;;;;;;8.10;2.90;;;;;;;;;;10389839;28;20217;-73
2022/08/09 06:08:56;;;;;;;5.60;2.53;;;;;;;;;;10381387;28;20225;-73
2022/08/09 06:13:57;;;;;;;5.37;2.30;;;;;;;;;;10386129;28;20694;-72
2022/08/09 06:18:58;;;;;;;5.20;2.43;;;;;;;;;;10400172;28;20220;-73
2022/08/09 06:24:02;;;;;;;4.90;2.30;;;;;;;;;;10395894;28;20314;-72
2022/08/09 06:29:03;;;;;;;4.83;2.20;;;;;;;;;;10404674;28;20221;-73
2022/08/09 06:34:04;;;;;;;8.13;2.60;;;;;;;;;;10395207;28;20221;-73
2022/08/09 06:39:07;;;;;;;5.47;2.20;;;;;;;;;;10396944;28;20220;-73
2022/08/09 06:44:13;;;;;;;4.13;2.30;;;;;;;;;;10401301;28;20221;-73
2022/08/09 06:49:17;;;;;;;11.53;2.50;;;;;;;;;;10398298;28;20221;-72
2022/08/09 06:54:18;;;;;;;6.80;2.50;;;;;;;;;;10397445;28;20246;-73
2022/08/09 06:59:19;;;;;;;10.17;2.20;;;;;;;;;;10407017;28;20258;-72
2022/08/09 07:04:20;;;;;;;6.07;2.37;;;;;;;;;;10397281;28;20228;-73
2022/08/09 07:09:21;;;;;;;4.03;1.87;;;;;;;;;;10392005;28;20217;-73
2022/08/09 07:14:22;;;;;;;6.43;2.10;;;;;;;;;;10388544;28;20619;-74
2022/08/09 07:19:23;;;;;;;7.50;2.30;;;;;;;;;;10390573;28;20244;-74
2022/08/09 07:24:24;;;;;;;6.10;2.40;;;;;;;;;;10397792;28;20221;-72
2022/08/09 07:29:26;;;;;;;6.43;2.23;;;;;;;;;;10390395;28;20214;-72
2022/08/09 07:34:27;;;;;;;6.20;2.60;;;;;;;;;;10389836;28;20625;-72
2022/08/09 07:39:28;;;;;;;3.97;2.10;;;;;;;;;;10396290;28;20232;-73
2022/08/09 07:44:29;;;;;;;4.73;2.10;;;;;;;;;;10389411;28;20237;-73
2022/08/09 07:49:30;;;;;;;6.73;2.20;;;;;;;;;;10396827;28;20224;-73
2022/08/09 07:54:34;;;;;;;4.70;2.20;;;;;;;;;;10388960;28;20221;-73
2022/08/09 07:59:35;;;;;;;2.10;1.87;;;;;;;;;;10395675;28;20767;-73
2022/08/09 08:04:37;;;;;;;7.60;2.50;;;;;;;;;;10389589;28;20252;-73
2022/08/09 08:09:38;;;;;;;6.07;2.47;;;;;;;;;;10387865;28;20221;-73
2022/08/09 08:14:39;;;;;;;5.30;1.60;;;;;;;;;;10386461;28;20220;-73
2022/08/09 08:19:40;;;;;;;2.83;1.67;;;;;;;;;;10388233;28;20221;-73
2022/08/09 08:24:44;;;;;;;5.10;2.00;;;;;;;;;;10400728;28;20576;-73
2022/08/09 08:29:45;;;;;;;5.67;1.83;;;;;;;;;;10393118;28;20224;-73
2022/08/09 08:34:46;;;;;;;3.30;1.67;;;;;;;;;;10395509;28;20233;-73
2022/08/09 08:39:47;;;;;;;8.20;2.00;;;;;;;;;;10396073;28;20243;-73
2022/08/09 08:44:52;;;;;;;3.60;1.57;;;;;;;;;;10400239;28;20226;-73
2022/08/09 08:49:54;;;;;;;6.17;1.70;;;;;;;;;;10389118;28;20279;-73
2022/08/09 08:54:59;;;;;;;3.67;1.53;;;;;;;;;;10391042;28;20225;-72
2022/08/09 08:59:59;;;;;;;2.47;1.47;;;;;;;;;;10396019;28;20299;-72
2022/08/09 09:05:01;;;;;;;3.03;1.60;;;;;;;;;;10390595;28;20308;-73
2022/08/09 09:10:06;;;;;;;3.40;1.60;;;;;;;;;;10390131;28;20220;-73
2022/08/09 09:15:07;;;;;;;4.13;1.73;;;;;;;;;;10396746;28;20689;-72
2022/08/09 09:20:12;;;;;;;4.90;1.50;;;;;;;;;;10385229;28;20189;-73
2022/08/09 09:25:29;;;;;;;5.67;1.80;;;;;;;;;;10392179;28;20243;-73
2022/08/09 09:30:30;;;;;;;1.70;1.33;;;;;;;;;;10385841;28;20651;-73
2022/08/09 09:35:32;;;;;;;2.87;1.60;;;;;;;;;;10394066;28;20232;-72
2022/08/09 09:40:43;;;;;;;2.30;1.47;;;;;;;;;;10392260;28;20255;-71
2022/08/09 09:45:49;;;;;;;4.13;1.37;;;;;;;;;;10388209;28;20229;-72
2022/08/09 09:50:51;;;;;;;5.10;1.73;;;;;;;;;;10387237;28;20217;-73
2022/08/09 09:56:01;;;;;;;3.67;1.67;;;;;;;;;;10392056;28;20217;-73
2022/08/09 10:01:05;;;;;;;2.20;1.40;;;;;;;;;;10395803;28;20669;-73
2022/08/09 10:06:06;;;;;;;4.23;1.53;;;;;;;;;;10389928;28;20247;-74
2022/08/09 10:11:29;;;;;;;2.47;1.67;;;;;;;;;;10399883;28;20217;-73
2022/08/09 10:16:32;;;;;;;3.00;1.83;;;;;;;;;;10391695;28;20743;-73
2022/08/09 10:21:33;;;;;;;3.90;1.60;;;;;;;;;;10400049;28;20279;-74
2022/08/09 10:26:34;;;;;;;2.20;1.90;;;;;;;;;;10389654;28;20720;-73
2022/08/09 10:31:35;;;;;;;5.50;1.40;;;;;;;;;;10398115;28;20224;-73
2022/08/09 10:36:40;;;;;;;5.13;1.90;;;;;;;;;;10397350;28;20281;-74
2022/08/09 10:41:41;;;;;;;2.27;1.10;;;;;;;;;;10392441;28;20681;-73
2022/08/09 10:47:00;;;;;;;2.30;1.43;;;;;;;;;;10406100;28;20244;-72
2022/08/09 10:52:01;;;;;;;2.97;1.33;;;;;;;;;;10393288;28;20581;-72
2022/08/09 10:57:06;;;;;;;1.50;1.40;;;;;;;;;;10395474;28;20291;-72
2022/08/09 11:02:12;;;;;;;3.27;1.70;;;;;;;;;;10402290;28;20225;-73
2022/08/09 11:07:13;;;;;;;5.03;1.50;;;;;;;;;;10400087;28;20600;-72
2022/08/09 11:12:32;;;;;;;3.10;1.53;;;;;;;;;;10405235;28;20313;-72
2022/08/09 11:17:33;;;;;;;1.80;1.40;;;;;;;;;;10393327;28;20229;-73
2022/08/09 11:22:43;;;;;;;3.13;1.30;;;;;;;;;;10390906;28;20228;-71
2022/08/09 11:27:45;;;;;;;4.70;1.40;;;;;;;;;;10396319;28;20302;-73
2022/08/09 11:32:49;;;;;;;5.03;1.30;;;;;;;;;;10393859;28;20245;-72
2022/08/09 11:37:54;;;;;;;4.20;1.30;;;;;;;;;;10393766;28;20252;-72
2022/08/09 11:42:56;;;;;;;3.90;1.23;;;;;;;;;;10393940;28;20224;-73
2022/08/09 11:48:02;;;;;;;1.97;1.40;;;;;;;;;;10390386;28;20235;-73
2022/08/09 11:53:03;;;;;;;3.27;1.50;;;;;;;;;;10392958;28;20288;-74
2022/08/09 11:58:27;;;;;;;1.67;1.40;;;;;;;;;;10389179;28;20288;-73
2022/08/09 12:03:29;;;;;;;3.87;1.50;;;;;;;;;;10389356;28;20279;-72
2022/08/09 12:08:30;;;;;;;2.80;1.60;;;;;;;;;;10389915;28;20720;-72
2022/08/09 12:13:38;;;;;;;2.67;1.60;;;;;;;;;;10396777;28;20220;-73
2022/08/09 12:18:41;;;;;;;2.37;1.40;;;;;;;;;;10401659;28;20231;-71
2022/08/09 12:23:44;;;;;;;3.03;1.47;;;;;;;;;;10394322;28;20692;-73
2022/08/09 12:28:49;;;;;;;4.20;1.77;;;;;;;;;;10399942;28;20236;-74
2022/08/09 12:33:50;;;;;;;5.20;1.50;;;;;;;;;;10392408;28;20233;-74
2022/08/09 12:38:52;;;;;;;3.30;1.40;;;;;;;;;;10392080;28;20227;-72
2022/08/09 12:43:54;;;;;;;2.50;1.30;;;;;;;;;;10393765;28;20240;-73
2022/08/09 12:48:56;;;;;;;6.93;1.50;;;;;;;;;;10397107;28;20804;-72
2022/08/09 12:53:59;;;;;;;3.57;1.40;;;;;;;;;;10404491;28;20213;-73
2022/08/09 12:59:04;;;;;;;4.10;1.43;;;;;;;;;;10399837;28;20223;-73
2022/08/09 13:04:10;;;;;;;2.27;1.30;;;;;;;;;;10393143;28;20220;-73
2022/08/09 13:09:23;;;;;;;4.53;1.20;;;;;;;;;;10398155;28;20213;-73
2022/08/09 13:14:27;;;;;;;5.17;1.63;;;;;;;;;;10386615;28;20227;-73
2022/08/09 13:19:30;;;;;;;4.47;1.43;;;;;;;;;;10387533;28;20217;-73
2022/08/09 13:24:31;;;;;;;4.63;1.60;;;;;;;;;;10398411;28;20239;-73
2022/08/09 13:29:32;;;;;;;2.23;1.30;;;;;;;;;;10396385;28;20216;-72
2022/08/09 13:34:39;;;;;;;4.33;1.70;;;;;;;;;;10395010;28;20229;-72
2022/08/09 13:39:40;;;;;;;2.00;1.30;;;;;;;;;;10392740;28;20217;-73
2022/08/09 13:44:41;;;;;;;2.47;1.23;;;;;;;;;;10395007;28;20274;-73
2022/08/09 13:49:44;;;;;;;3.27;1.60;;;;;;;;;;10403336;28;20241;-72
2022/08/09 13:54:45;;;;;;;4.00;1.57;;;;;;;;;;10400937;28;20224;-73
2022/08/09 13:59:49;;;;;;;3.93;1.60;;;;;;;;;;10397843;28;20719;-74
2022/08/09 14:04:51;;;;;;;4.77;1.60;;;;;;;;;;10398672;28;20225;-73
2022/08/09 14:09:52;;;;;;;3.20;1.60;;;;;;;;;;10393222;28;20227;-73
2022/08/09 14:14:53;;;;;;;5.83;1.67;;;;;;;;;;10397498;28;20220;-72
2022/08/09 14:19:55;;;;;;;3.37;1.60;;;;;;;;;;10398761;28;20235;-74
2022/08/09 14:24:56;;;;;;;2.17;1.40;;;;;;;;;;10403311;28;20943;-73
2022/08/09 14:29:57;;;;;;;4.23;1.33;;;;;;;;;;10405243;28;20220;-73
2022/08/09 14:34:58;;;;;;;2.97;1.40;;;;;;;;;;10396500;28;20227;-73
2022/08/09 14:39:59;;;;;;;2.80;1.90;;;;;;;;;;10386610;28;20296;-74
2022/08/09 14:45:01;;;;;;;2.83;1.60;;;;;;;;;;10378113;28;20582;-73
2022/08/09 14:50:03;;;;;;;2.77;1.37;;;;;;;;;;10400201;28;20650;-73
2022/08/09 14:55:05;;;;;;;5.97;1.53;;;;;;;;;;10382519;28;20304;-73
2022/08/09 15:00:07;;;;;;;5.73;1.73;;;;;;;;;;10402944;28;20329;-73
2022/08/09 15:05:09;;;;;;;2.40;1.30;;;;;;;;;;10400687;28;20629;-73
2022/08/09 15:10:10;;;;;;;5.60;1.80;;;;;;;;;;10400646;28;20677;-72
2022/08/09 15:15:11;;;;;;;5.33;1.60;;;;;;;;;;10406029;28;20281;-73
2022/08/09 15:20:12;;;;;;;2.33;1.43;;;;;;;;;;10394115;28;20185;-72
2022/08/09 15:25:13;;;;;;;4.57;1.40;;;;;;;;;;10397717;28;20284;-73
2022/08/09 15:30:17;;;;;;;3.67;1.37;;;;;;;;;;10390995;28;20189;-73
2022/08/09 15:35:18;;;;;;;4.87;1.40;;;;;;;;;;10398272;28;20181;-73
2022/08/09 15:40:20;;;;;;;3.83;1.70;;;;;;;;;;10398163;28;20662;-73
2022/08/09 15:45:21;;;;;;;5.70;1.90;;;;;;;;;;10389950;28;20677;-73
2022/08/09 15:50:22;;;;;;;4.33;1.40;;;;;;;;;;10389383;28;20186;-73
2022/08/09 15:55:23;;;;;;;2.73;1.70;;;;;;;;;;10397341;28;20193;-73
2022/08/09 16:00:25;;;;;;;4.07;1.40;;;;;;;;;;10389352;28;20220;-72
2022/08/09 16:05:29;;;;;;;4.50;1.47;;;;;;;;;;10404908;28;20224;-73
2022/08/09 16:10:33;;;;;;;2.73;1.10;;;;;;;;;;10397950;28;20243;-72
2022/08/09 16:15:34;;;;;;;3.27;1.77;;;;;;;;;;10388768;28;20601;-73
2022/08/09 16:20:37;;;;;;;2.80;1.40;;;;;;;;;;10397096;28;20227;-73
2022/08/09 16:25:38;;;;;;;3.80;1.30;;;;;;;;;;10388787;28;20761;-73
2022/08/09 16:30:39;;;;;;;5.10;1.70;;;;;;;;;;10391034;28;20225;-73
2022/08/09 16:35:41;;;;;;;3.43;1.60;;;;;;;;;;10396197;28;20225;-74
2022/08/09 16:40:42;;;;;;;5.73;1.50;;;;;;;;;;10394409;28;20227;-73
2022/08/09 16:45:44;;;;;;;3.83;1.30;;;;;;;;;;10398266;28;20224;-73
2022/08/09 16:50:45;;;;;;;4.93;1.47;;;;;;;;;;10396405;28;20220;-73
2022/08/09 16:55:50;;;;;;;1.47;1.37;;;;;;;;;;10390815;28;20287;-74
2022/08/09 17:00:51;;;;;;;3.00;1.40;;;;;;;;;;10400057;28;20276;-73
2022/08/09 17:05:53;;;;;;;5.63;1.40;;;;;;;;;;10382520;28;20263;-71
2022/08/09 17:10:56;;;;;;;2.90;1.60;;;;;;;;;;10397262;28;20233;-73
2022/08/09 17:15:58;;;;;;;3.13;1.60;;;;;;;;;;10391297;28;20300;-71
2022/08/09 17:20:59;;;;;;;2.80;1.57;;;;;;;;;;10379607;28;20244;-72
2022/08/09 17:26:01;;;;;;;2.93;1.43;;;;;;;;;;10391137;28;20710;-72
2022/08/09 17:31:01;;;;;;;3.57;1.60;;;;;;;;;;10391711;28;20695;-73
2022/08/09 17:36:04;;;;;;;3.63;1.53;;;;;;;;;;10386974;28;20297;-73
2022/08/09 17:41:05;;;;;;;4.40;1.83;;;;;;;;;;10391707;28;20241;-73
2022/08/09 17:46:06;;;;;;;3.03;1.37;;;;;;;;;;10395237;28;20260;-72
2022/08/09 17:51:08;;;;;;;2.60;1.50;;;;;;;;;;10388785;28;20237;-73
2022/08/09 17:56:09;;;;;;;4.03;1.43;;;;;;;;;;10394323;28;20328;-73
2022/08/09 18:01:10;;;;;;;3.40;1.87;;;;;;;;;;10394566;28;20316;-72
2022/08/09 18:06:11;;;;;;;3.50;1.67;;;;;;;;;;10385289;28;20236;-73
2022/08/09 18:11:15;;;;;;;6.50;1.80;;;;;;;;;;10395205;28;20224;-74
2022/08/09 18:16:19;;;;;;;2.67;1.43;;;;;;;;;;10403028;28;20594;-74
2022/08/09 18:21:20;;;;;;;6.13;1.63;;;;;;;;;;10396407;28;20639;-73
2022/08/09 18:26:21;;;;;;;4.77;1.87;;;;;;;;;;10402769;28;20233;-72
2022/08/09 18:31:23;;;;;;;5.77;2.07;;;;;;;;;;10393780;28;20224;-73
2022/08/09 18:36:24;;;;;;;4.37;2.07;;;;;;;;;;10403079;28;20232;-73
2022/08/09 18:41:25;;;;;;;4.83;2.13;;;;;;;;;;10401191;28;20229;-73
2022/08/09 18:46:26;;;;;;;5.73;1.90;;;;;;;;;;10407638;28;20337;-73
2022/08/09 18:51:27;;;;;;;2.00;1.90;;;;;;;;;;10401678;28;20224;-73
2022/08/09 18:56:31;;;;;;;3.40;2.10;;;;;;;;;;10392392;28;20221;-72
2022/08/09 19:01:32;;;;;;;8.13;2.00;;;;;;;;;;10408379;28;20240;-73
2022/08/09 19:06:34;;;;;;;4.20;2.27;;;;;;;;;;10407884;28;20248;-73
2022/08/09 19:11:35;;;;;;;4.77;1.93;;;;;;;;;;10399906;28;20220;-72
2022/08/09 19:16:36;;;;;;;2.93;1.87;;;;;;;;;;10398849;28;20857;-74
2022/08/09 19:21:37;;;;;;;3.80;1.77;;;;;;;;;;10392266;28;20225;-73
2022/08/09 19:26:41;;;;;;;2.63;1.70;;;;;;;;;;10390921;28;20232;-72
2022/08/09 19:31:42;;;;;;;4.37;2.03;;;;;;;;;;10399548;28;20222;-74
2022/08/09 19:36:46;;;;;;;5.07;2.00;;;;;;;;;;10397391;28;20291;-74
2022/08/09 19:41:47;;;;;;;5.00;2.07;;;;;;;;;;10397620;28;20224;-73
2022/08/09 19:46:49;;;;;;;6.33;2.20;;;;;;;;;;10390821;28;20229;-72
2022/08/09 19:51:55;;;;;;;4.40;2.27;;;;;;;;;;10390919;28;20743;-73
2022/08/09 19:56:57;;;;;;;4.47;2.53;;;;;;;;;;10394034;28;20216;-72
2022/08/09 20:02:03;;;;;;;4.97;2.00;;;;;;;;;;10394177;28;20376;-73
2022/08/09 20:07:11;;;;;;;5.37;2.20;;;;;;;;;;10382676;28;20232;-72
2022/08/09 20:12:14;;;;;;;5.33;2.33;;;;;;;;;;10398061;28;20228;-72
2022/08/09 20:17:15;;;;;;;4.17;1.80;;;;;;;;;;10393999;28;20600;-73
2022/08/09 20:22:16;;;;;;;4.37;2.10;;;;;;;;;;10391463;28;20236;-73
2022/08/09 20:27:17;;;;;;;6.63;1.97;;;;;;;;;;10399386;28;20238;-72
2022/08/09 20:32:18;;;;;;;5.70;2.80;;;;;;;;;;10395556;28;20556;-73
2022/08/09 20:37:19;;;;;;;7.73;2.20;;;;;;;;;;10399078;28;20222;-73
2022/08/09 20:42:21;;;;;;;4.30;2.30;;;;;;;;;;10397086;28;20687;-73
2022/08/09 20:47:22;;;;;;;3.17;2.13;;;;;;;;;;10388575;28;20291;-73
2022/08/09 20:52:23;;;;;;;4.77;2.03;;;;;;;;;;10403498;28;20270;-72
2022/08/09 20:57:24;;;;;;;5.73;2.27;;;;;;;;;;10397438;28;20277;-73
2022/08/09 21:02:25;;;;;;;6.30;2.20;;;;;;;;;;10400036;28;20221;-73
2022/08/09 21:07:29;;;;;;;4.20;2.00;;;;;;;;;;10404816;28;20236;-73
2022/08/09 21:12:31;;;;;;;4.07;2.37;;;;;;;;;;10387100;28;20237;-74
2022/08/09 21:17:32;;;;;;;4.90;2.03;;;;;;;;;;10395389;28;20732;-73
2022/08/09 21:22:33;;;;;;;6.60;2.20;;;;;;;;;;10396407;28;20221;-73
2022/08/09 21:27:34;;;;;;;3.43;1.93;;;;;;;;;;10388645;28;20244;-73
2022/08/09 21:32:35;;;;;;;2.63;2.30;;;;;;;;;;10394837;28;20276;-72
2022/08/09 21:37:36;;;;;;;5.23;2.27;;;;;;;;;;10388408;28;20307;-73
2022/08/09 21:42:37;;;;;;;3.60;2.20;;;;;;;;;;10394855;28;20253;-73
2022/08/09 21:47:41;;;;;;;7.40;2.40;;;;;;;;;;10393570;28;20265;-73
2022/08/09 21:52:43;;;;;;;2.70;2.33;;;;;;;;;;10397739;28;20216;-72
2022/08/09 21:57:44;;;;;;;3.87;2.20;;;;;;;;;;10402295;28;20705;-74
2022/08/09 22:02:45;;;;;;;5.97;2.33;;;;;;;;;;10403376;28;20315;-73
2022/08/09 22:07:46;;;;;;;6.17;2.33;;;;;;;;;;10401273;28;20243;-73
2022/08/09 22:12:48;;;;;;;3.93;2.20;;;;;;;;;;10402845;28;20708;-74
2022/08/09 22:17:49;;;;;;;4.43;2.30;;;;;;;;;;10408332;28;20259;-73
2022/08/09 22:22:50;;;;;;;4.60;2.27;;;;;;;;;;10395172;28;20296;-73
2022/08/09 22:27:54;;;;;;;5.70;2.30;;;;;;;;;;10398714;28;20707;-72
2022/08/09 22:32:55;;;;;;;6.97;2.40;;;;;;;;;;10400453;28;20270;-73
2022/08/09 22:37:59;;;;;;;3.80;2.20;;;;;;;;;;10396591;28;20271;-74
2022/08/09 22:43:00;;;;;;;4.60;2.30;;;;;;;;;;10408696;28;20770;-73
2022/08/09 22:48:01;;;;;;;3.13;2.07;;;;;;;;;;10400558;28;20282;-72
2022/08/09 22:53:02;;;;;;;8.20;2.40;;;;;;;;;;10401239;28;20288;-72
2022/08/09 22:58:03;;;;;;;2.70;2.27;;;;;;;;;;10408868;28;20676;-74
2022/08/09 23:03:06;;;;;;;6.67;2.27;;;;;;;;;;10403558;28;20213;-73
2022/08/09 23:13:27;;;;;;;3.93;2.00;;;;;;;;;;10399045;28;20252;-73
2022/08/09 23:18:28;;;;;;;2.30;2.10;;;;;;;;;;10400428;28;20221;-73
2022/08/09 23:23:29;;;;;;;5.70;2.10;;;;;;;;;;10392086;28;20324;-73
2022/08/09 23:28:30;;;;;;;3.90;2.67;;;;;;;;;;10392177;28;20233;-72
2022/08/09 23:33:31;;;;;;;2.70;2.40;;;;;;;;;;10390198;28;20263;-73
2022/08/09 23:38:32;;;;;;;4.37;2.70;;;;;;;;;;10399288;28;20328;-74
2022/08/09 23:43:35;;;;;;;7.60;2.63;;;;;;;;;;10392315;28;20717;-74
2022/08/09 23:48:37;;;;;;;6.37;2.20;;;;;;;;;;10398425;28;20240;-74
2022/08/09 23:53:37;;;;;;;3.47;2.20;;;;;;;;;;10389154;28;20231;-72
2022/08/09 23:58:38;;;;;;;3.63;2.70;;;;;;;;;;10391119;28;20224;-73
